Date,TemperatureHighF,TemperatureAvgF,TemperatureLowF,DewpointHighF,DewpointAvgF,DewpointLowF,HumidityHigh,HumidityAvg,HumidityLow,PressureMaxIn,PressureMinIn,WindSpeedMaxMPH,WindSpeedAvgMPH,GustSpeedMaxMPH,PrecipitationSumIn
2013-1-1,42,36,31,35,32,30,96,87,73,30.46,30.31,6,1,9,0.01
2013-1-2,47,36,30,36,31,26,96,83,48,30.31,30.15,6,0,11,0.01
2013-1-3,47,37,29,37,30,25,97,79,43,30.16,30.04,12,1,15,0.01
2013-1-4,49,44,38,45,42,37,98,92,84,30.25,30.11,12,2,17,0.01
2013-1-5,46,44,41,41,39,35,95,83,71,30.15,30.06,13,2,15,0.01
2013-1-6,46,43,41,43,40,39,95,90,82,30.13,29.93,15,5,20,0.01
2013-1-7,51,47,42,48,44,40,100,90,82,30.10,29.73,25,8,33,0.01
2013-1-8,54,48,42,50,45,41,98,92,84,30.10,29.68,33,8,41,0.01
2013-1-9,51,42,37,49,40,35,96,92,85,29.89,29.62,25,6,34,0.01
2013-1-10,40,37,32,37,35,30,94,90,78,30.06,29.88,7,1,11,0.01
2013-1-11,35,32,29,32,29,27,97,89,76,30.27,30.06,6,1,9,0.01
2013-1-12,37,31,27,30,27,25,98,88,65,30.40,30.27,11,1,13,0.01
2013-1-13,36,31,27,31,28,26,96,88,71,30.45,30.39,5,0,6,0.01
2013-1-14,38,35,33,34,31,28,89,84,77,30.52,30.43,7,1,7,0.01
2013-1-15,43,38,34,36,34,32,93,85,68,30.65,30.52,9,0,11,0.00
2013-1-16,42,34,30,37,32,29,99,93,78,30.64,30.48,5,0,7,0.01
2013-1-17,37,34,30,37,33,30,99,98,95,30.48,30.25,5,1,6,0.00
2013-1-18,37,34,32,37,34,32,100,99,98,30.31,30.22,7,1,10,0.00
2013-1-19,36,34,31,35,33,31,100,99,96,30.35,30.30,7,2,10,0.00
2013-1-20,39,35,32,38,34,32,100,99,94,30.35,30.22,6,2,7,0.00
2013-1-21,36,33,31,36,33,31,100,99,99,30.24,30.10,9,1,9,0.00
2013-1-22,39,35,32,38,34,31,100,97,90,30.10,29.86,5,1,5,0.00
2013-1-23,44,42,39,42,39,34,97,89,76,30.08,29.80,12,2,15,0.02
2013-1-24,46,43,41,42,40,37,97,89,72,30.16,30.01,11,2,14,0.02
2013-1-25,51,46,42,45,43,40,99,90,75,30.02,29.88,14,3,18,0.01
2013-1-26,45,43,41,42,40,39,96,89,83,29.97,29.84,16,4,23,0.01
2013-1-27,43,42,40,40,39,37,96,90,84,30.01,29.93,20,5,25,0.01
2013-1-28,43,42,40,42,40,38,100,95,92,30.03,29.95,7,1,11,0.01
2013-1-29,48,45,42,46,44,42,98,96,91,30.28,30.03,18,3,21,0.01
2013-1-30,48,46,45,48,46,44,100,99,97,30.33,30.27,7,1,10,0.01
2013-1-31,50,48,46,47,46,45,100,95,85,30.34,30.25,16,3,23,0.01